Time;durP1;ratioP1;P1;durP2;ratioP2;P2;SDS_P1;SDS_P2;PMS_P1;PMS_P2;Temp;Humidity;BMP_temperature;BMP_pressure;BME280_temperature;BME280_humidity;BME280_pressure;Samples;Min_cycle;Max_cycle;Signal;HPM_P1;HPM_P2
2024/02/05 00:00:12;;;;;;;15.70;2.13;;;10.70;99.90;;;;;;4957887;29;20094;-79
2024/02/05 00:02:38;;;;;;;;;;;10.60;99.90;;;;;;4958049;29;20115;-79
2024/02/05 00:05:06;;;;;;;11.25;1.52;;;10.60;99.90;;;;;;4956629;29;19981;-79
2024/02/05 00:07:32;;;;;;;23.77;1.88;;;10.60;99.90;;;;;;4958711;28;20081;-79
2024/02/05 00:09:57;;;;;;;21.23;2.20;;;10.60;99.90;;;;;;4958703;29;20655;-79
2024/02/05 00:12:23;;;;;;;13.73;1.67;;;10.60;99.90;;;;;;4959646;29;20027;-79
2024/02/05 00:14:48;;;;;;;22.95;2.97;;;10.60;99.90;;;;;;4958303;29;20113;-79
2024/02/05 00:17:14;;;;;;;13.48;1.75;;;10.50;99.90;;;;;;4957036;28;20026;-80
2024/02/05 00:19:40;;;;;;;17.45;2.28;;;10.50;99.90;;;;;;4956874;29;20565;-79
2024/02/05 00:22:06;;;;;;;15.20;1.10;;;10.60;99.90;;;;;;4957333;29;20023;-79
2024/02/05 00:24:32;;;;;;;19.63;2.28;;;10.60;99.90;;;;;;4955962;28;20027;-79
2024/02/05 00:26:57;;;;;;;20.33;2.78;;;10.60;99.90;;;;;;4957309;29;20027;-80
2024/02/05 00:29:23;;;;;;;19.85;1.98;;;10.50;99.90;;;;;;4955733;29;20043;-79
2024/02/05 00:31:49;;;;;;;22.95;2.10;;;10.50;99.90;;;;;;4957120;29;20031;-79
2024/02/05 00:34:15;;;;;;;25.80;3.13;;;10.50;99.90;;;;;;4957574;29;20054;-79
2024/02/05 00:36:42;;;;;;;16.88;1.70;;;10.50;99.90;;;;;;4956893;28;20028;-79
2024/02/05 00:39:10;;;;;;;17.15;1.85;;;10.50;99.90;;;;;;4956184;29;20024;-80
2024/02/05 00:41:36;;;;;;;17.73;3.10;;;10.50;99.90;;;;;;4957426;29;20077;-79
2024/02/05 00:44:02;;;;;;;19.50;2.45;;;10.40;99.90;;;;;;4955904;29;20034;-79
2024/02/05 00:46:28;;;;;;;22.35;1.88;;;10.40;99.90;;;;;;4955111;29;20146;-79
2024/02/05 00:48:54;;;;;;;23.15;1.70;;;10.30;99.90;;;;;;4955562;29;20117;-80
2024/02/05 00:51:20;;;;;;;30.40;2.30;;;10.60;99.90;;;;;;4956041;29;20027;-81
2024/02/05 00:53:47;;;;;;;16.17;1.67;;;10.40;99.90;;;;;;4956260;28;20025;-80
2024/02/05 00:56:13;;;;;;;16.48;2.65;;;10.30;99.90;;;;;;4957457;29;20535;-79
2024/02/05 00:58:39;;;;;;;19.58;2.17;;;10.30;99.90;;;;;;4955992;28;20110;-81
2024/02/05 01:01:05;;;;;;;17.50;1.92;;;10.30;99.90;;;;;;4956031;29;20086;-79
2024/02/05 01:03:31;;;;;;;13.73;2.22;;;10.30;99.90;;;;;;4955787;28;20097;-78
2024/02/05 01:05:57;;;;;;;14.98;2.17;;;10.30;99.90;;;;;;4956795;29;20034;-79
2024/02/05 01:08:23;;;;;;;24.98;2.90;;;10.30;99.90;;;;;;4957311;29;20110;-80
2024/02/05 01:10:48;;;;;;;13.25;2.15;;;10.30;99.90;;;;;;4955537;29;20038;-79
2024/02/05 01:13:14;;;;;;;21.77;2.55;;;11.40;99.90;;;;;;4956850;29;20475;-79
2024/02/05 01:15:41;;;;;;;23.83;2.03;;;10.20;99.90;;;;;;4955438;29;20031;-78
2024/02/05 01:18:06;;;;;;;19.30;1.33;;;10.20;99.90;;;;;;4954925;29;20019;-79
2024/02/05 01:20:32;;;;;;;18.35;1.98;;;10.20;99.90;;;;;;4955057;29;20038;-80
2024/02/05 01:22:58;;;;;;;30.42;2.65;;;10.20;99.90;;;;;;4955200;28;20041;-79
2024/02/05 01:25:23;;;;;;;22.45;1.75;;;10.20;99.90;;;;;;4956127;29;20105;-79
2024/02/05 01:27:49;;;;;;;13.50;1.02;;;10.10;99.90;;;;;;4954937;29;20031;-80
2024/02/05 01:30:15;;;;;;;15.52;2.17;;;10.20;99.90;;;;;;4955049;29;20035;-79
2024/02/05 01:32:41;;;;;;;29.80;2.45;;;10.10;99.90;;;;;;4955254;29;20034;-79
2024/02/05 01:35:07;;;;;;;24.27;3.92;;;10.20;99.90;;;;;;4954622;29;20114;-79
2024/02/05 01:37:32;;;;;;;19.83;2.15;;;10.10;99.90;;;;;;4955361;29;20442;-80
2024/02/05 01:39:58;;;;;;;24.75;1.92;;;10.10;99.90;;;;;;4954997;29;20085;-79
2024/02/05 01:42:26;;;;;;;22.30;2.15;;;10.00;99.90;;;;;;4954841;29;20023;-79
2024/02/05 01:44:53;;;;;;;19.77;2.40;;;10.00;99.90;;;;;;4956319;29;20031;-79
2024/02/05 01:47:22;;;;;;;15.45;1.90;;;9.90;99.90;;;;;;4954701;29;20042;-79
2024/02/05 01:49:48;;;;;;;21.50;2.97;;;9.90;99.90;;;;;;4954819;28;20031;-79
2024/02/05 01:52:18;;;;;;;25.73;2.90;;;9.90;99.90;;;;;;4955782;29;20039;-79
2024/02/05 01:54:47;;;;;;;18.10;3.25;;;9.80;99.90;;;;;;4954453;29;20023;-79
2024/02/05 01:57:13;;;;;;;25.10;2.47;;;;;;;;;;4955737;29;20027;-79
2024/02/05 01:59:39;;;;;;;25.58;1.98;;;9.70;99.90;;;;;;4954618;29;20479;-79
2024/02/05 02:02:06;;;;;;;27.73;2.45;;;9.70;99.90;;;;;;4954701;29;20509;-79
2024/02/05 02:04:33;;;;;;;25.58;2.53;;;9.60;99.90;;;;;;4954467;28;20054;-79
2024/02/05 02:06:59;;;;;;;21.73;3.42;;;9.50;99.90;;;;;;4955628;29;20031;-79
2024/02/05 02:09:25;;;;;;;21.23;1.55;;;9.50;99.90;;;;;;4955855;29;20023;-79
2024/02/05 02:11:51;;;;;;;19.77;1.67;;;9.50;99.90;;;;;;4954220;29;20070;-79
2024/02/05 02:14:17;;;;;;;22.15;2.92;;;9.60;99.90;;;;;;4955799;29;20035;-79
2024/02/05 02:16:43;;;;;;;16.58;2.50;;;9.60;99.90;;;;;;4962398;29;20015;-79
2024/02/05 02:19:36;;;;;;;27.83;2.92;;;9.60;99.90;;;;;;4968880;29;20031;-79
2024/02/05 02:22:32;;;;;;;20.58;2.20;;;9.50;99.90;;;;;;4968539;29;20034;-78
2024/02/05 02:24:58;;;;;;;18.38;1.60;;;9.50;99.90;;;;;;4933040;28;20166;-79
2024/02/05 02:27:23;;;;;;;33.20;3.25;;;9.50;99.90;;;;;;4957153;29;20034;-78
2024/02/05 02:29:50;;;;;;;21.15;2.72;;;9.50;99.90;;;;;;4956978;29;20364;-78
2024/02/05 02:32:15;;;;;;;26.42;3.88;;;9.50;99.90;;;;;;4955900;29;20027;-78
2024/02/05 02:34:45;;;;;;;32.75;2.97;;;9.50;99.90;;;;;;4955512;29;20027;-78
2024/02/05 02:37:14;;;;;;;23.65;1.45;;;9.50;99.90;;;;;;4955653;29;20452;-79
2024/02/05 02:39:53;;;;;;;22.10;3.03;;;9.50;99.90;;;;;;4958324;29;20053;-78
2024/02/05 02:42:19;;;;;;;28.35;2.90;;;9.60;99.90;;;;;;4957966;29;20031;-80
2024/02/05 02:44:46;;;;;;;19.80;1.52;;;9.60;99.90;;;;;;4958668;29;20054;-80
2024/02/05 02:47:12;;;;;;;16.63;1.95;;;9.60;99.90;;;;;;4958223;28;20047;-82
2024/02/05 02:49:37;;;;;;;28.50;2.70;;;9.60;99.90;;;;;;4961158;29;20395;-81
2024/02/05 02:52:03;;;;;;;28.92;2.35;;;9.60;99.90;;;;;;4961301;29;20031;-80
2024/02/05 02:54:29;;;;;;;11.73;1.33;;;9.60;99.90;;;;;;4960861;29;20019;-81
2024/02/05 02:56:54;;;;;;;17.27;2.08;;;9.60;99.90;;;;;;4960464;29;20027;-80
2024/02/05 02:59:20;;;;;;;25.08;2.42;;;9.60;99.90;;;;;;4962488;29;20383;-81
2024/02/05 03:01:45;;;;;;;27.98;3.05;;;9.60;99.90;;;;;;4961179;29;20129;-81
2024/02/05 03:04:11;;;;;;;17.80;2.33;;;9.60;99.90;;;;;;4961512;29;20509;-81
2024/02/05 03:06:38;;;;;;;18.30;3.42;;;9.60;99.90;;;;;;4962686;29;20023;-81
2024/02/05 03:09:05;;;;;;;19.40;1.30;;;9.60;99.90;;;;;;4960819;29;20047;-81
2024/02/05 03:11:31;;;;;;;23.50;2.58;;;9.50;99.90;;;;;;4962168;29;20029;-81
2024/02/05 03:13:56;;;;;;;24.23;3.78;;;9.60;99.90;;;;;;4960248;29;20082;-81
2024/02/05 03:16:22;;;;;;;22.27;3.08;;;;;;;;;;4961617;29;20029;-80
2024/02/05 03:18:48;;;;;;;27.35;3.60;;;9.50;99.90;;;;;;4961718;29;20031;-80
2024/02/05 03:21:13;;;;;;;21.70;2.25;;;9.60;99.90;;;;;;4960534;29;20019;-80
2024/02/05 03:23:39;;;;;;;27.80;4.50;;;9.60;99.90;;;;;;4960998;29;20111;-82
2024/02/05 03:26:05;;;;;;;31.13;1.95;;;9.60;99.90;;;;;;4959511;29;20384;-81
2024/02/05 03:28:30;;;;;;;19.35;1.77;;;9.50;99.90;;;;;;4959247;29;20122;-82
2024/02/05 03:30:56;;;;;;;18.98;1.90;;;9.50;99.90;;;;;;4959692;29;20027;-82
2024/02/05 03:33:22;;;;;;;30.02;3.92;;;9.50;99.90;;;;;;4959563;29;20372;-82
2024/02/05 03:35:48;;;;;;;24.08;2.28;;;9.50;99.90;;;;;;4960705;29;20187;-82
2024/02/05 03:38:13;;;;;;;24.73;2.05;;;9.50;99.90;;;;;;4960602;29;20023;-82
2024/02/05 03:40:39;;;;;;;27.95;2.40;;;9.50;99.90;;;;;;4959044;29;20031;-81
2024/02/05 03:43:06;;;;;;;20.35;3.60;;;9.50;99.90;;;;;;4960784;29;20027;-81
2024/02/05 03:45:32;;;;;;;13.73;1.63;;;9.50;99.90;;;;;;4960666;28;20023;-80
2024/02/05 03:47:58;;;;;;;24.27;3.17;;;9.50;99.90;;;;;;4959872;29;20385;-81
2024/02/05 03:50:23;;;;;;;25.15;2.78;;;9.50;99.90;;;;;;4958714;28;20028;-81
2024/02/05 03:52:49;;;;;;;26.70;3.03;;;;;;;;;;4960874;29;20035;-81
2024/02/05 03:55:15;;;;;;;17.35;2.53;;;9.50;99.90;;;;;;4961904;28;20031;-80
2024/02/05 03:57:43;;;;;;;18.27;3.40;;;9.50;99.90;;;;;;4960235;29;20030;-80
2024/02/05 04:00:10;;;;;;;28.75;2.67;;;9.50;99.90;;;;;;4960376;28;20101;-80
2024/02/05 04:02:36;;;;;;;38.22;3.60;;;9.50;99.90;;;;;;4960313;29;20015;-81
2024/02/05 04:05:03;;;;;;;24.23;2.17;;;9.50;99.90;;;;;;4960311;29;20027;-80
2024/02/05 04:07:29;;;;;;;18.88;2.80;;;9.60;99.90;;;;;;4960369;29;20019;-82
2024/02/05 04:09:54;;;;;;;32.10;3.42;;;9.60;99.90;;;;;;4959285;29;20037;-81
2024/02/05 04:12:20;;;;;;;31.13;4.95;;;9.60;99.90;;;;;;4959629;29;20028;-81
2024/02/05 04:14:46;;;;;;;36.03;3.00;;;9.60;99.90;;;;;;4959187;29;20547;-81
2024/02/05 04:17:11;;;;;;;18.98;3.35;;;9.60;99.90;;;;;;4958698;29;20031;-80
2024/02/05 04:19:43;;;;;;;21.13;3.22;;;9.60;99.90;;;;;;4960143;29;20020;-79
2024/02/05 04:22:12;;;;;;;23.95;3.95;;;9.50;99.90;;;;;;4959726;29;20066;-79
2024/02/05 04:24:38;;;;;;;23.23;2.10;;;9.60;99.90;;;;;;4958432;29;20031;-80
2024/02/05 04:27:04;;;;;;;17.35;3.40;;;9.60;99.90;;;;;;4958633;29;20046;-80
2024/02/05 04:29:30;;;;;;;18.58;2.63;;;9.60;99.90;;;;;;4958252;29;20042;-80
2024/02/05 04:31:57;;;;;;;16.80;2.80;;;9.50;99.90;;;;;;4959320;29;20460;-80
2024/02/05 04:34:23;;;;;;;19.90;2.88;;;9.50;99.90;;;;;;4958205;29;20047;-80
2024/02/05 04:36:49;;;;;;;17.23;1.60;;;9.60;99.90;;;;;;4959462;29;20078;-80
2024/02/05 04:39:15;;;;;;;29.42;2.40;;;9.60;99.90;;;;;;4958222;29;20479;-79
2024/02/05 04:41:41;;;;;;;20.60;2.13;;;9.60;99.90;;;;;;4956534;29;20490;-80
2024/02/05 04:44:07;;;;;;;26.75;3.70;;;9.60;99.90;;;;;;4957125;29;20031;-79
2024/02/05 04:46:32;;;;;;;23.63;2.53;;;9.60;99.90;;;;;;4957745;29;20031;-81
2024/02/05 04:48:58;;;;;;;21.27;3.78;;;9.60;99.90;;;;;;4957513;29;20031;-80
2024/02/05 04:51:24;;;;;;;16.73;1.88;;;9.70;99.90;;;;;;4956246;29;20042;-81
2024/02/05 04:53:49;;;;;;;20.33;2.65;;;9.60;99.90;;;;;;4959318;29;20483;-81
2024/02/05 04:56:15;;;;;;;14.18;2.25;;;9.50;99.90;;;;;;4958720;29;20027;-80
2024/02/05 04:58:40;;;;;;;29.23;3.65;;;9.50;99.90;;;;;;4959229;29;20027;-80
2024/02/05 05:01:06;;;;;;;19.92;2.47;;;9.50;99.90;;;;;;4957377;29;20130;-81
2024/02/05 05:03:33;;;;;;;13.35;2.17;;;9.60;99.90;;;;;;4958068;29;20034;-80
2024/02/05 05:05:59;;;;;;;28.50;4.03;;;9.60;99.90;;;;;;4957350;29;20023;-79
2024/02/05 05:08:25;;;;;;;16.95;3.20;;;9.50;99.90;;;;;;4957795;29;20027;-79
2024/02/05 05:10:51;;;;;;;17.05;3.53;;;9.50;99.90;;;;;;4959115;28;20082;-80
2024/02/05 05:13:16;;;;;;;21.90;2.53;;;9.60;99.90;;;;;;4958481;29;20090;-80
2024/02/05 05:15:42;;;;;;;14.00;2.28;;;9.60;99.90;;;;;;4958186;29;20111;-80
2024/02/05 05:18:08;;;;;;;24.15;2.47;;;9.50;99.90;;;;;;4959843;29;20028;-80
2024/02/05 05:20:34;;;;;;;27.40;3.03;;;9.60;99.90;;;;;;4958979;29;20166;-81
2024/02/05 05:23:00;;;;;;;24.00;2.80;;;9.50;99.90;;;;;;4959203;29;20036;-80
2024/02/05 05:25:26;;;;;;;24.90;3.90;;;9.60;99.90;;;;;;4958697;29;20027;-79
2024/02/05 05:27:52;;;;;;;20.55;3.28;;;9.60;99.90;;;;;;4955792;29;20030;-79
2024/02/05 05:30:17;;;;;;;25.80;3.65;;;9.60;99.90;;;;;;4957023;29;20055;-79
2024/02/05 05:32:43;;;;;;;21.08;4.63;;;9.50;99.90;;;;;;4955255;29;20023;-79
2024/02/05 05:35:09;;;;;;;21.05;3.35;;;9.50;99.90;;;;;;4956378;29;20031;-80
2024/02/05 05:37:34;;;;;;;19.42;2.92;;;9.50;99.90;;;;;;4955856;29;20027;-79
2024/02/05 05:40:00;;;;;;;21.08;3.05;;;9.50;99.90;;;;;;4955294;29;20118;-80
2024/02/05 05:42:26;;;;;;;24.50;3.03;;;9.50;99.90;;;;;;4956714;29;20406;-79
2024/02/05 05:44:52;;;;;;;22.48;3.05;;;10.10;99.90;;;;;;4956261;29;20027;-79
2024/02/05 05:47:19;;;;;;;17.77;2.90;;;9.50;99.90;;;;;;4956528;29;20058;-78
2024/02/05 05:49:45;;;;;;;19.75;2.80;;;9.50;99.90;;;;;;4955489;28;20559;-79
2024/02/05 05:52:11;;;;;;;18.98;3.17;;;9.50;99.90;;;;;;4956037;29;20023;-80
2024/02/05 05:54:37;;;;;;;27.15;5.03;;;9.50;99.90;;;;;;4956663;29;20027;-78
2024/02/05 05:57:03;;;;;;;32.00;2.40;;;9.50;99.90;;;;;;4956643;29;20046;-79
2024/02/05 05:59:28;;;;;;;19.33;2.67;;;9.50;99.90;;;;;;4955354;29;20031;-78
2024/02/05 06:01:54;;;;;;;24.42;2.75;;;;;;;;;;4954871;29;20040;-78
2024/02/05 06:04:20;;;;;;;24.67;3.45;;;9.50;99.90;;;;;;4956896;28;20038;-80
2024/02/05 06:06:46;;;;;;;21.33;2.85;;;9.50;99.90;;;;;;4956859;29;20510;-80
2024/02/05 06:09:17;;;;;;;15.18;3.75;;;9.40;99.90;;;;;;4957203;29;20027;-80
2024/02/05 06:11:43;;;;;;;17.27;2.63;;;9.40;99.90;;;;;;4957826;29;20026;-81
2024/02/05 06:14:08;;;;;;;13.43;2.90;;;9.40;99.90;;;;;;4958146;29;20043;-80
2024/02/05 06:16:34;;;;;;;16.02;1.92;;;9.50;99.90;;;;;;4957903;29;20020;-80
2024/02/05 06:19:00;;;;;;;26.75;2.80;;;9.40;99.90;;;;;;4957810;29;20110;-79
2024/02/05 06:21:25;;;;;;;18.67;2.55;;;9.40;99.90;;;;;;4956485;28;20035;-79
2024/02/05 06:23:51;;;;;;;25.17;3.28;;;9.50;99.90;;;;;;4958881;29;20019;-79
2024/02/05 06:26:17;;;;;;;23.30;3.55;;;9.40;99.90;;;;;;4960241;29;20501;-80
2024/02/05 06:28:43;;;;;;;14.82;1.70;;;9.40;99.90;;;;;;4961672;29;20027;-79
2024/02/05 06:31:10;;;;;;;21.75;3.10;;;9.40;99.90;;;;;;4963777;29;20027;-81
2024/02/05 06:33:36;;;;;;;17.40;3.13;;;9.40;99.90;;;;;;4961942;29;20023;-80
2024/02/05 06:36:01;;;;;;;18.10;1.67;;;9.40;99.90;;;;;;4961255;29;20024;-81
2024/02/05 06:38:27;;;;;;;23.40;2.35;;;9.30;99.90;;;;;;4961330;29;20522;-81
2024/02/05 06:40:52;;;;;;;19.50;2.95;;;9.30;99.90;;;;;;4961092;29;20031;-81
2024/02/05 06:43:18;;;;;;;25.55;4.38;;;9.30;99.90;;;;;;4960765;29;20054;-81
2024/02/05 06:45:44;;;;;;;25.55;3.58;;;9.40;99.90;;;;;;4960643;29;20062;-80
2024/02/05 06:48:09;;;;;;;30.00;3.35;;;9.40;99.90;;;;;;4961463;29;20491;-80
2024/02/05 06:50:35;;;;;;;20.48;3.17;;;10.90;99.90;;;;;;4960881;29;20019;-80
2024/02/05 06:53:01;;;;;;;20.17;2.42;;;9.40;99.90;;;;;;4962349;29;20031;-80
2024/02/05 06:55:27;;;;;;;16.75;1.77;;;9.30;99.90;;;;;;4961049;29;20098;-80
2024/02/05 06:57:53;;;;;;;16.13;2.17;;;9.30;99.90;;;;;;4960760;29;20027;-80
2024/02/05 07:00:19;;;;;;;17.80;2.42;;;9.30;99.90;;;;;;4960820;29;20031;-81
2024/02/05 07:02:45;;;;;;;18.17;3.90;;;9.30;99.90;;;;;;4961554;29;20106;-80
2024/02/05 07:05:14;;;;;;;28.38;2.60;;;9.30;99.90;;;;;;4962634;29;20058;-80
2024/02/05 07:07:40;;;;;;;24.02;3.05;;;9.30;99.90;;;;;;4961280;29;20023;-80
2024/02/05 07:10:06;;;;;;;19.30;3.20;;;9.30;99.90;;;;;;4959571;29;20086;-79
2024/02/05 07:12:32;;;;;;;26.20;2.88;;;9.20;99.90;;;;;;4958844;29;20023;-79
2024/02/05 07:14:57;;;;;;;22.92;3.63;;;9.20;99.90;;;;;;4958730;29;20039;-79
2024/02/05 07:17:31;;;;;;;28.83;3.13;;;9.30;99.90;;;;;;4958813;29;20050;-79
2024/02/05 07:19:59;;;;;;;25.02;1.77;;;9.30;99.90;;;;;;4961261;29;20030;-80
2024/02/05 07:22:25;;;;;;;20.30;2.55;;;9.30;99.90;;;;;;4961596;29;20019;-80
2024/02/05 07:24:51;;;;;;;18.58;2.25;;;9.30;99.90;;;;;;4959053;29;20518;-79
2024/02/05 07:27:17;;;;;;;23.15;2.85;;;9.20;99.90;;;;;;4958319;29;20114;-79
2024/02/05 07:29:42;;;;;;;34.00;3.28;;;9.30;99.90;;;;;;4959967;29;20432;-79
2024/02/05 07:32:08;;;;;;;16.15;1.90;;;9.30;99.90;;;;;;4959246;29;20066;-79
2024/02/05 07:34:34;;;;;;;27.63;4.13;;;9.20;99.90;;;;;;4960381;28;20047;-80
2024/02/05 07:36:59;;;;;;;33.13;2.92;;;9.20;99.90;;;;;;4958839;28;20114;-79
2024/02/05 07:39:26;;;;;;;19.48;2.58;;;9.30;99.90;;;;;;4959805;29;20030;-80
2024/02/05 07:41:52;;;;;;;16.98;3.25;;;9.30;99.90;;;;;;4960204;29;20078;-80
2024/02/05 07:44:18;;;;;;;23.95;2.92;;;9.30;99.90;;;;;;4958697;29;20059;-80
2024/02/05 07:46:43;;;;;;;24.55;2.10;;;9.30;99.90;;;;;;4960412;29;20023;-79
2024/02/05 07:49:09;;;;;;;30.40;3.25;;;9.30;99.90;;;;;;4960030;29;20035;-80
2024/02/05 07:51:46;;;;;;;24.35;2.72;;;9.30;99.90;;;;;;4960081;29;20399;-79
2024/02/05 07:54:12;;;;;;;26.35;3.63;;;9.30;99.90;;;;;;4957689;29;20019;-80
2024/02/05 07:56:42;;;;;;;15.13;1.35;;;9.20;99.90;;;;;;4959068;29;20063;-79
2024/02/05 07:59:11;;;;;;;16.33;2.55;;;9.20;99.90;;;;;;4959159;29;20019;-79
2024/02/05 08:01:38;;;;;;;22.67;2.75;;;9.30;99.90;;;;;;4958194;29;20031;-79
2024/02/05 08:04:04;;;;;;;14.30;3.00;;;9.30;99.90;;;;;;4957866;29;20068;-79
2024/02/05 08:06:30;;;;;;;20.83;2.45;;;9.30;99.90;;;;;;4957820;29;20050;-79
2024/02/05 08:08:56;;;;;;;18.10;2.50;;;9.30;99.90;;;;;;4958886;29;20023;-79
2024/02/05 08:11:24;;;;;;;18.52;2.42;;;9.50;99.90;;;;;;4956944;29;20024;-79
2024/02/05 08:13:51;;;;;;;32.05;2.45;;;10.20;99.90;;;;;;4958583;29;20399;-79
2024/02/05 08:16:17;;;;;;;23.08;4.15;;;9.30;99.90;;;;;;4957502;29;20053;-80
2024/02/05 08:18:42;;;;;;;23.58;3.13;;;9.30;99.90;;;;;;4958796;29;20024;-79
2024/02/05 08:21:08;;;;;;;20.42;3.13;;;10.00;99.90;;;;;;4959158;29;20038;-79
2024/02/05 08:23:35;;;;;;;11.70;2.47;;;9.40;99.90;;;;;;4959214;28;20027;-80
2024/02/05 08:26:01;;;;;;;22.20;4.25;;;9.40;99.90;;;;;;4958694;29;20031;-78
2024/02/05 08:28:27;;;;;;;23.80;2.63;;;9.40;99.90;;;;;;4958729;29;20059;-79
2024/02/05 08:30:56;;;;;;;18.52;3.30;;;9.30;99.90;;;;;;4958110;29;20038;-79
2024/02/05 08:33:22;;;;;;;18.42;3.03;;;9.30;99.90;;;;;;4957477;29;20395;-80
2024/02/05 08:35:48;;;;;;;26.10;3.50;;;9.40;99.90;;;;;;4957829;29;20020;-79
2024/02/05 08:38:13;;;;;;;19.77;2.92;;;9.40;99.90;;;;;;4959528;29;20030;-79
2024/02/05 08:40:39;;;;;;;25.10;4.57;;;9.40;99.90;;;;;;4958850;29;20027;-79
2024/02/05 08:43:05;;;;;;;32.75;4.32;;;9.30;99.90;;;;;;4958427;29;20031;-79
2024/02/05 08:45:31;;;;;;;18.55;3.38;;;9.30;99.90;;;;;;4959354;28;20023;-80
2024/02/05 08:47:57;;;;;;;29.90;5.60;;;9.30;99.90;;;;;;4959048;29;20114;-80
2024/02/05 08:50:25;;;;;;;29.55;2.97;;;9.30;99.90;;;;;;4961788;29;20022;-80
2024/02/05 08:52:51;;;;;;;16.40;2.13;;;9.30;99.90;;;;;;4960787;29;20083;-80
2024/02/05 08:55:17;;;;;;;22.23;3.72;;;9.30;99.90;;;;;;4960203;29;20023;-80
2024/02/05 08:57:44;;;;;;;21.33;3.03;;;9.30;99.90;;;;;;4961383;29;20102;-79
2024/02/05 09:00:10;;;;;;;22.98;3.75;;;9.30;99.90;;;;;;4959990;28;20019;-80
2024/02/05 09:02:37;;;;;;;21.05;2.38;;;9.40;99.90;;;;;;4958783;28;20384;-80
2024/02/05 09:05:03;;;;;;;29.25;3.28;;;9.40;99.90;;;;;;4959968;29;20050;-79
2024/02/05 09:07:29;;;;;;;17.92;3.85;;;9.40;99.90;;;;;;4958490;29;20023;-80
2024/02/05 09:09:56;;;;;;;19.08;2.30;;;9.40;99.90;;;;;;4959080;29;20550;-80
2024/02/05 09:12:21;;;;;;;17.45;2.63;;;9.50;99.90;;;;;;4960731;29;20499;-80
2024/02/05 09:14:48;;;;;;;35.90;4.72;;;10.40;99.90;;;;;;4959456;29;20031;-80
2024/02/05 09:17:15;;;;;;;23.02;2.80;;;9.50;99.90;;;;;;4958823;29;20043;-80
2024/02/05 09:19:41;;;;;;;25.58;2.85;;;9.50;99.90;;;;;;4960531;29;20466;-80
2024/02/05 09:22:08;;;;;;;11.02;2.42;;;9.50;99.90;;;;;;4960941;29;20023;-80
2024/02/05 09:24:34;;;;;;;20.48;3.72;;;9.50;99.90;;;;;;4958777;28;20027;-80
2024/02/05 09:27:01;;;;;;;23.73;4.45;;;9.40;99.90;;;;;;4958488;29;20031;-80
2024/02/05 09:29:26;;;;;;;16.00;2.78;;;9.40;99.90;;;;;;4958329;29;20030;-80
2024/02/05 09:31:53;;;;;;;30.75;3.75;;;9.30;99.90;;;;;;4958049;29;20031;-79
2024/02/05 09:34:20;;;;;;;15.73;1.90;;;9.30;99.90;;;;;;4958554;29;20031;-80
2024/02/05 09:36:46;;;;;;;20.02;3.78;;;9.40;99.90;;;;;;4960613;29;20023;-80
2024/02/05 09:39:11;;;;;;;28.15;2.53;;;9.40;99.90;;;;;;4959204;29;20019;-79
2024/02/05 09:41:39;;;;;;;16.17;2.15;;;9.40;99.90;;;;;;4958355;29;20027;-80
2024/02/05 09:44:05;;;;;;;17.60;2.55;;;9.30;99.90;;;;;;4959987;29;20087;-80
2024/02/05 09:46:33;;;;;;;20.27;2.55;;;9.40;99.90;;;;;;4957849;29;20440;-80
2024/02/05 09:49:04;;;;;;;21.55;2.33;;;9.40;99.90;;;;;;4959680;29;20023;-80
2024/02/05 09:51:31;;;;;;;23.92;3.08;;;9.40;99.90;;;;;;4958537;29;20086;-80
2024/02/05 09:53:59;;;;;;;33.92;4.05;;;9.80;99.90;;;;;;4957656;29;20027;-80
2024/02/05 09:56:29;;;;;;;15.32;2.38;;;9.40;99.90;;;;;;4958753;28;20097;-79
2024/02/05 09:58:58;;;;;;;34.20;2.03;;;9.40;99.90;;;;;;4961793;29;20139;-80
2024/02/05 10:01:27;;;;;;;27.60;3.47;;;9.30;99.90;;;;;;4962592;29;20035;-79
2024/02/05 10:03:56;;;;;;;;;;;9.40;99.90;;;;;;4962619;28;20557;-80
2024/02/05 10:06:26;;;;;;;19.17;2.38;;;9.50;99.90;;;;;;4961693;29;19970;-80
2024/02/05 10:09:02;;;;;;;20.67;4.05;;;9.40;99.90;;;;;;4963068;29;20027;-80
2024/02/05 10:11:29;;;;;;;16.23;1.55;;;9.50;99.90;;;;;;4960585;29;20028;-79
2024/02/05 10:13:55;;;;;;;11.13;1.95;;;10.60;99.90;;;;;;4961013;28;20391;-80
2024/02/05 10:16:22;;;;;;;23.77;1.98;;;9.60;99.90;;;;;;4959331;29;20491;-79
2024/02/05 10:18:48;;;;;;;18.40;2.70;;;9.70;99.90;;;;;;4959056;28;20391;-80
2024/02/05 10:21:14;;;;;;;15.38;2.85;;;9.70;99.90;;;;;;4960896;29;20027;-79
2024/02/05 10:23:40;;;;;;;24.08;3.35;;;9.80;99.90;;;;;;4960687;29;20027;-79
2024/02/05 10:26:08;;;;;;;18.67;2.22;;;9.70;99.90;;;;;;4959311;29;20027;-79
2024/02/05 10:28:34;;;;;;;;;;;9.70;99.90;;;;;;4960101;29;20034;-79
2024/02/05 10:31:07;;;;;;;26.10;1.70;;;9.70;99.90;;;;;;4960375;29;19914;-79
2024/02/05 10:33:33;;;;;;;30.67;2.67;;;9.70;99.90;;;;;;4962338;29;20542;-81
2024/02/05 10:35:59;;;;;;;17.88;2.10;;;9.70;99.90;;;;;;4962251;29;20077;-81
2024/02/05 10:38:28;;;;;;;19.35;2.47;;;9.60;99.90;;;;;;4963369;29;20019;-81
2024/02/05 10:40:55;;;;;;;32.63;4.07;;;;;;;;;;4962533;29;20027;-82
2024/02/05 10:43:21;;;;;;;13.55;2.70;;;;;;;;;;4963413;28;20034;-82
2024/02/05 10:45:46;;;;;;;12.65;1.73;;;9.80;99.90;;;;;;4962143;29;20031;-81
2024/02/05 10:48:12;;;;;;;19.27;3.70;;;9.80;99.90;;;;;;4962883;29;20035;-81
2024/02/05 10:50:38;;;;;;;21.35;2.40;;;9.80;99.90;;;;;;4963399;29;20059;-82
2024/02/05 10:53:03;;;;;;;25.38;3.13;;;9.80;99.90;;;;;;4963368;29;20019;-82
2024/02/05 10:55:30;;;;;;;25.45;3.88;;;9.80;99.90;;;;;;4963959;29;20027;-82
2024/02/05 10:57:56;;;;;;;17.65;1.60;;;9.80;99.90;;;;;;4962221;29;20499;-81
2024/02/05 11:00:23;;;;;;;21.20;2.22;;;10.60;99.90;;;;;;4963426;29;20551;-81
2024/02/05 11:03:04;;;;;;;24.45;3.67;;;9.80;99.90;;;;;;4962160;29;20014;-81
2024/02/05 11:05:32;;;;;;;24.40;2.28;;;9.90;99.90;;;;;;4961462;29;20031;-81
2024/02/05 11:08:09;;;;;;;19.90;2.20;;;9.90;99.90;;;;;;4962851;28;20030;-81
2024/02/05 11:10:42;;;;;;;17.20;3.00;;;9.90;99.90;;;;;;4963180;29;20027;-82
2024/02/05 11:13:11;;;;;;;34.95;2.85;;;10.00;99.90;;;;;;4961346;29;20110;-81
2024/02/05 11:15:39;;;;;;;21.92;2.85;;;;;;;;;;4961636;28;20031;-82
2024/02/05 11:18:17;;;;;;;23.60;3.83;;;9.90;99.90;;;;;;4961217;29;20046;-81
2024/02/05 11:20:46;;;;;;;12.70;2.33;;;9.90;99.90;;;;;;4962456;29;20027;-81
2024/02/05 11:23:14;;;;;;;;;;;9.90;99.90;;;;;;4962702;29;20255;-81
2024/02/05 11:25:40;;;;;;;23.25;3.55;;;9.90;99.90;;;;;;4962711;29;19942;-80
2024/02/05 11:28:10;;;;;;;17.65;3.60;;;9.90;99.90;;;;;;4962348;29;20023;-80
2024/02/05 11:30:36;;;;;;;22.42;4.25;;;9.90;99.90;;;;;;4960999;29;20400;-82
2024/02/05 11:33:02;;;;;;;26.65;2.90;;;10.00;99.90;;;;;;4962966;28;20019;-81
2024/02/05 11:35:29;;;;;;;25.20;3.78;;;10.00;99.90;;;;;;4961801;29;20061;-81
2024/02/05 11:38:12;;;;;;;20.85;3.53;;;10.10;99.90;;;;;;4961430;29;20024;-81
2024/02/05 11:40:39;;;;;;;21.98;2.65;;;10.20;99.90;;;;;;4961353;29;20023;-81
2024/02/05 11:43:06;;;;;;;24.30;2.70;;;10.30;99.90;;;;;;4961438;29;20034;-80
2024/02/05 11:45:33;;;;;;;32.58;3.42;;;10.30;99.90;;;;;;4961899;29;20372;-81
2024/02/05 11:48:06;;;;;;;25.00;3.05;;;10.40;99.90;;;;;;4962803;29;20069;-82
2024/02/05 11:50:35;;;;;;;26.17;3.13;;;10.40;99.90;;;;;;4962736;29;20019;-81
2024/02/05 11:53:01;;;;;;;25.23;3.28;;;10.40;99.90;;;;;;4962725;29;20028;-81
2024/02/05 11:55:27;;;;;;;22.52;4.90;;;10.40;99.90;;;;;;4961880;29;20368;-82
2024/02/05 11:57:52;;;;;;;18.20;3.55;;;10.50;99.90;;;;;;4961588;28;20502;-82
2024/02/05 12:00:19;;;;;;;33.83;3.40;;;;;;;;;;4959650;29;20031;-78
2024/02/05 12:02:46;;;;;;;26.95;3.15;;;10.50;99.90;;;;;;4958795;29;20034;-79
2024/02/05 12:05:13;;;;;;;23.38;3.40;;;10.40;99.90;;;;;;4960073;29;20028;-79
2024/02/05 12:07:39;;;;;;;10.90;2.08;;;10.40;99.90;;;;;;4960544;29;20041;-79
2024/02/05 12:10:06;;;;;;;19.52;2.65;;;10.50;99.90;;;;;;4958943;29;20027;-79
2024/02/05 12:12:32;;;;;;;20.92;3.00;;;10.50;99.90;;;;;;4960033;29;20031;-79
2024/02/05 12:14:58;;;;;;;15.90;2.78;;;10.40;99.90;;;;;;4959872;29;20028;-78
2024/02/05 12:17:23;;;;;;;20.52;3.38;;;10.40;99.90;;;;;;4959008;29;20514;-78
2024/02/05 12:20:00;;;;;;;25.40;2.70;;;10.40;99.90;;;;;;4959507;28;20028;-78
2024/02/05 12:22:27;;;;;;;25.70;3.03;;;10.50;99.90;;;;;;4958046;29;20051;-79
2024/02/05 12:24:54;;;;;;;17.20;2.78;;;10.50;99.90;;;;;;4959677;29;20634;-79
2024/02/05 12:27:21;;;;;;;21.60;2.85;;;10.40;99.90;;;;;;4959191;29;20054;-77
2024/02/05 12:29:47;;;;;;;26.98;2.33;;;10.40;99.90;;;;;;4956901;29;20037;-79
2024/02/05 12:32:12;;;;;;;18.23;2.90;;;10.40;99.90;;;;;;4959129;29;20118;-78
2024/02/05 12:34:39;;;;;;;22.42;3.40;;;10.40;99.90;;;;;;4959558;29;20478;-78
2024/02/05 12:37:08;;;;;;;14.38;2.53;;;10.40;99.90;;;;;;4957710;29;20037;-78
2024/02/05 12:39:36;;;;;;;13.75;1.88;;;10.50;99.90;;;;;;4959117;29;20015;-78
2024/02/05 12:42:02;;;;;;;22.63;2.15;;;10.50;99.90;;;;;;4957454;29;20035;-78
2024/02/05 12:44:28;;;;;;;16.35;2.45;;;10.60;99.90;;;;;;4957075;29;20030;-78